Řízení letového provozu České republiky
Letiste: LKCV Aktualizace: 20.07.2018 15:01:06  UTC
 METAR LKCV 20.07. 15:00 ...
METAR LKCV 201500Z 31007KT 260V360 CAVOK 28/09 Q1013 NOSIG RMK BLU BLU=
 TAF LKCV 20.07. 11:00 ...
TAF LKCV 201100Z 2012/2112 07004KT CAVOK      TEMPO 2017/2110 VRB02KT=